createdAt,value
2019-05-11T00:00:36.342Z,2.17
2019-05-11T00:03:05.092Z,2.23
2019-05-11T00:05:33.541Z,2.30
2019-05-11T00:08:02.049Z,2.10
2019-05-11T00:10:30.557Z,2.20
2019-05-11T00:12:58.992Z,2.23
2019-05-11T00:15:27.522Z,2.50
2019-05-11T00:17:55.964Z,2.20
2019-05-11T00:20:24.457Z,2.27
2019-05-11T00:22:52.977Z,2.00
2019-05-11T00:25:21.425Z,2.27
2019-05-11T00:27:49.894Z,2.40
2019-05-11T00:30:18.431Z,2.87
2019-05-11T00:32:46.886Z,2.60
2019-05-11T00:35:15.358Z,1.83
2019-05-11T00:37:43.872Z,2.40
2019-05-11T00:40:14.657Z,2.03
2019-05-11T00:42:42.987Z,2.27
2019-05-11T00:45:11.771Z,1.83
2019-05-11T00:47:40.813Z,2.40
2019-05-11T00:50:09.694Z,2.00
2019-05-11T00:52:38.223Z,2.47
2019-05-11T00:55:07.425Z,2.00
2019-05-11T00:57:35.892Z,2.50
2019-05-11T01:00:06.682Z,2.10
2019-05-11T01:02:35.239Z,2.27
2019-05-11T01:05:04.999Z,2.67
2019-05-11T01:07:33.541Z,2.30
2019-05-11T01:10:02.039Z,2.40
2019-05-11T01:12:30.547Z,2.50
2019-05-11T01:14:58.996Z,2.20
2019-05-11T01:17:27.478Z,3.47
2019-05-11T01:19:55.930Z,3.20
2019-05-11T01:22:24.402Z,2.70
2019-05-11T01:24:52.850Z,2.30
2019-05-11T01:27:21.332Z,2.60
2019-05-11T01:29:49.782Z,2.93
2019-05-11T01:32:18.268Z,2.83
2019-05-11T01:34:46.708Z,2.60
2019-05-11T01:37:15.186Z,2.47
2019-05-11T01:39:43.659Z,2.60
2019-05-11T01:42:12.192Z,2.70
2019-05-11T01:44:40.660Z,2.30
2019-05-11T01:47:09.188Z,2.37
2019-05-11T01:49:37.659Z,2.50
2019-05-11T01:52:06.245Z,3.00
2019-05-11T01:54:34.807Z,3.00
2019-05-11T01:57:03.246Z,2.73
2019-05-11T01:59:31.798Z,2.03
2019-05-11T02:02:00.238Z,2.40
2019-05-11T02:04:28.686Z,2.60
2019-05-11T02:06:57.143Z,2.83
2019-05-11T02:09:25.600Z,2.63
2019-05-11T02:11:54.053Z,2.60
2019-05-11T02:14:25.228Z,2.33
2019-05-11T02:16:53.694Z,2.57
2019-05-11T02:19:22.137Z,2.10
2019-05-11T02:21:50.617Z,2.30
2019-05-11T02:24:19.126Z,2.70
2019-05-11T02:26:47.588Z,2.30
2019-05-11T02:29:16.100Z,2.50
2019-05-11T02:31:44.560Z,2.20
2019-05-11T02:34:13.018Z,2.03
2019-05-11T02:36:41.506Z,2.10
2019-05-11T02:39:10.072Z,2.10
2019-05-11T02:41:38.628Z,2.20
2019-05-11T02:44:07.204Z,2.20
2019-05-11T02:46:35.647Z,2.20
2019-05-11T02:49:04.192Z,2.20
2019-05-11T02:51:33.080Z,2.57
2019-05-11T02:54:02.867Z,2.40
2019-05-11T02:56:31.406Z,2.07
2019-05-11T02:58:59.870Z,2.20
2019-05-11T03:01:28.318Z,2.13
2019-05-11T03:03:56.764Z,2.73
2019-05-11T03:06:25.241Z,2.40
2019-05-11T03:08:53.751Z,3.57
2019-05-11T03:11:22.229Z,6.43
2019-05-11T03:13:50.701Z,4.60
2019-05-11T03:16:19.218Z,3.63
2019-05-11T03:18:47.650Z,3.70
2019-05-11T03:21:16.125Z,3.80
2019-05-11T03:23:44.587Z,3.23
2019-05-11T03:26:13.054Z,2.57
2019-05-11T03:28:41.562Z,2.50
2019-05-11T03:31:10.030Z,2.20
2019-05-11T03:33:38.538Z,2.20
2019-05-11T03:36:07.054Z,1.97
2019-05-11T03:38:35.596Z,2.20
2019-05-11T03:41:04.101Z,2.23
2019-05-11T03:43:32.572Z,2.00
2019-05-11T03:46:01.017Z,2.30
2019-05-11T03:48:29.460Z,2.20
2019-05-11T03:50:57.920Z,2.30
2019-05-11T03:53:26.371Z,3.07
2019-05-11T03:55:54.896Z,2.87
2019-05-11T03:58:26.215Z,2.87
2019-05-11T04:00:53.531Z,2.70
2019-05-11T04:03:21.972Z,2.60
2019-05-11T04:05:50.445Z,2.50
2019-05-11T04:08:18.973Z,2.47
2019-05-11T04:10:47.418Z,2.60
2019-05-11T04:13:15.950Z,2.37
2019-05-11T04:15:44.395Z,2.27
2019-05-11T04:18:12.834Z,2.70
2019-05-11T04:20:41.308Z,2.30
2019-05-11T04:23:09.822Z,2.70
2019-05-11T04:25:38.305Z,2.47
2019-05-11T04:28:06.741Z,2.50
2019-05-11T04:30:35.184Z,2.50
2019-05-11T04:33:03.742Z,2.43
2019-05-11T04:35:32.186Z,2.33
2019-05-11T04:38:00.632Z,2.93
2019-05-11T04:40:29.570Z,2.93
2019-05-11T04:42:58.031Z,2.93
2019-05-11T04:45:26.612Z,3.30
2019-05-11T04:47:55.054Z,2.40
2019-05-11T04:50:23.657Z,2.60
2019-05-11T04:52:52.101Z,2.77
2019-05-11T04:55:20.581Z,2.40
2019-05-11T04:57:49.026Z,2.60
2019-05-11T05:00:17.943Z,2.70
2019-05-11T05:02:46.401Z,3.00
2019-05-11T05:05:14.937Z,3.30
2019-05-11T05:07:49.036Z,2.83
2019-05-11T05:10:18.930Z,3.37
2019-05-11T05:12:50.418Z,3.10
2019-05-11T05:15:14.235Z,2.67
2019-05-11T05:17:42.902Z,2.70
2019-05-11T05:20:11.685Z,2.87
2019-05-11T05:22:40.141Z,3.00
2019-05-11T05:25:08.694Z,2.67
2019-05-11T05:27:37.137Z,2.73
2019-05-11T05:30:06.698Z,3.23
2019-05-11T05:32:35.501Z,3.00
2019-05-11T05:35:04.931Z,2.97
2019-05-11T05:37:33.390Z,2.87
2019-05-11T05:40:01.900Z,3.37
2019-05-11T05:42:30.487Z,3.73
2019-05-11T05:44:58.923Z,4.37
2019-05-11T05:47:27.382Z,5.20
2019-05-11T05:49:55.929Z,3.87
2019-05-11T05:52:24.442Z,4.00
2019-05-11T05:54:52.883Z,3.57
2019-05-11T05:57:21.347Z,3.60
2019-05-11T05:59:49.787Z,3.63
2019-05-11T06:02:18.260Z,3.80
2019-05-11T06:04:46.790Z,3.70
2019-05-11T06:07:15.263Z,3.80
2019-05-11T06:09:43.705Z,3.20
2019-05-11T06:12:12.256Z,3.63
2019-05-11T06:14:40.712Z,3.37
2019-05-11T06:17:09.193Z,3.40
2019-05-11T06:19:40.512Z,3.13
2019-05-11T06:22:08.962Z,3.23
2019-05-11T06:24:37.524Z,3.60
2019-05-11T06:27:05.963Z,3.77
2019-05-11T06:29:34.411Z,3.40
2019-05-11T06:32:02.895Z,3.27
2019-05-11T06:34:31.355Z,3.40
2019-05-11T06:36:59.808Z,4.10
2019-05-11T06:39:28.296Z,3.20
2019-05-11T06:41:56.772Z,3.57
2019-05-11T06:44:25.215Z,3.33
2019-05-11T06:46:53.762Z,3.40
2019-05-11T06:49:22.227Z,3.80
2019-05-11T06:51:50.685Z,3.50
2019-05-11T06:54:19.181Z,3.40
2019-05-11T06:56:47.632Z,3.57
2019-05-11T06:59:16.076Z,3.60
2019-05-11T07:01:44.552Z,3.07
2019-05-11T07:04:13.036Z,3.40
2019-05-11T07:06:41.493Z,3.47
2019-05-11T07:09:10.010Z,3.50
2019-05-11T07:11:38.477Z,3.63
2019-05-11T07:14:20.028Z,3.37
2019-05-11T07:16:37.120Z,3.80
2019-05-11T07:19:05.581Z,3.40
2019-05-11T07:21:34.122Z,3.80
2019-05-11T07:24:02.737Z,3.43
2019-05-11T07:26:31.181Z,3.97
2019-05-11T07:28:59.622Z,3.80
2019-05-11T07:31:28.101Z,3.83
2019-05-11T07:33:58.604Z,4.03
2019-05-11T07:36:28.265Z,4.00
2019-05-11T07:38:59.770Z,3.43
2019-05-11T07:41:29.744Z,3.97
2019-05-11T07:43:58.984Z,4.43
2019-05-11T07:46:28.751Z,3.70
2019-05-11T07:48:58.441Z,4.17
2019-05-11T07:51:28.747Z,3.50
2019-05-11T07:53:57.919Z,3.53
2019-05-11T07:56:28.527Z,3.90
2019-05-11T07:58:58.113Z,4.03
2019-05-11T08:01:28.249Z,4.47
2019-05-11T08:03:58.594Z,3.97
2019-05-11T08:06:28.584Z,5.00
2019-05-11T08:08:58.799Z,4.70
2019-05-11T08:11:30.726Z,4.20
2019-05-11T08:13:58.406Z,4.27
2019-05-11T08:16:28.598Z,4.33
2019-05-11T08:18:58.851Z,3.67
2019-05-11T08:21:28.361Z,3.90
2019-05-11T08:23:58.704Z,3.67
2019-05-11T08:26:28.235Z,4.27
2019-05-11T08:28:57.935Z,5.77
2019-05-11T08:31:27.905Z,6.50
2019-05-11T08:33:58.313Z,5.43
2019-05-11T08:36:28.871Z,5.47
2019-05-11T08:38:58.534Z,5.00
2019-05-11T08:41:28.139Z,3.80
2019-05-11T08:43:58.640Z,3.87
2019-05-11T08:46:27.955Z,3.73
2019-05-11T08:48:59.211Z,3.17
2019-05-11T08:51:28.021Z,3.67
2019-05-11T08:53:58.340Z,4.00
2019-05-11T08:56:28.954Z,4.13
2019-05-11T08:58:58.892Z,3.33
2019-05-11T09:01:28.696Z,2.70
2019-05-11T09:03:58.375Z,2.53
2019-05-11T09:06:28.395Z,2.37
2019-05-11T09:08:58.303Z,2.77
2019-05-11T09:11:28.320Z,2.77
2019-05-11T09:13:57.821Z,2.30
2019-05-11T09:16:28.913Z,2.30
2019-05-11T09:18:58.110Z,1.97
2019-05-11T09:21:28.186Z,2.10
2019-05-11T09:23:57.863Z,2.30
2019-05-11T09:26:28.641Z,1.83
2019-05-11T09:28:58.200Z,2.13
2019-05-11T09:31:27.968Z,2.00
2019-05-11T09:33:58.377Z,1.90
2019-05-11T09:36:28.505Z,1.70
2019-05-11T09:38:58.145Z,1.80
2019-05-11T09:41:28.865Z,2.23
2019-05-11T09:43:58.690Z,1.60
2019-05-11T09:46:27.917Z,2.10
2019-05-11T09:48:58.779Z,1.90
2019-05-11T09:51:28.793Z,1.83
2019-05-11T09:53:58.738Z,2.07
2019-05-11T09:56:28.779Z,1.97
2019-05-11T09:58:58.159Z,1.77
2019-05-11T10:01:26.780Z,1.80
2019-05-11T10:03:55.217Z,1.77
2019-05-11T10:06:23.687Z,1.70
2019-05-11T10:08:52.137Z,1.47
2019-05-11T10:11:20.602Z,1.60
2019-05-11T10:13:49.064Z,1.50
2019-05-11T10:16:18.036Z,1.80
2019-05-11T10:18:48.874Z,1.70
2019-05-11T10:21:18.829Z,1.93
2019-05-11T10:23:49.051Z,1.63
2019-05-11T10:26:18.635Z,1.87
2019-05-11T10:28:48.219Z,1.57
2019-05-11T10:31:18.172Z,1.47
2019-05-11T10:33:48.943Z,1.70
2019-05-11T10:36:18.899Z,1.57
2019-05-11T10:38:48.694Z,1.60
2019-05-11T10:41:18.073Z,1.40
2019-05-11T10:43:49.020Z,1.80
2019-05-11T10:46:23.051Z,1.70
2019-05-11T10:48:48.301Z,1.70
2019-05-11T10:51:18.461Z,1.40
2019-05-11T10:53:51.286Z,1.90
2019-05-11T10:56:17.948Z,1.50
2019-05-11T10:58:48.200Z,1.60
2019-05-11T11:01:18.185Z,1.20
2019-05-11T11:03:48.428Z,1.53
2019-05-11T11:06:18.914Z,1.60
2019-05-11T11:08:48.734Z,1.73
2019-05-11T11:11:18.518Z,1.83
2019-05-11T11:13:48.152Z,1.77
2019-05-11T11:16:32.814Z,1.73
2019-05-11T11:18:48.683Z,1.53
2019-05-11T11:21:22.383Z,1.63
2019-05-11T11:23:48.164Z,1.80
2019-05-11T11:26:18.464Z,1.43
2019-05-11T11:28:47.735Z,1.70
2019-05-11T11:31:18.550Z,1.50
2019-05-11T11:33:48.989Z,1.40
2019-05-11T11:36:17.964Z,1.30
2019-05-11T11:38:47.760Z,1.30
2019-05-11T11:41:18.647Z,1.37
2019-05-11T11:43:48.279Z,1.60
2019-05-11T11:46:18.794Z,1.87
2019-05-11T11:48:48.840Z,1.43
2019-05-11T11:51:18.719Z,1.40
2019-05-11T11:53:48.036Z,0.90
2019-05-11T11:56:18.921Z,1.50
2019-05-11T11:58:48.906Z,1.10
2019-05-11T12:01:18.947Z,1.40
2019-05-11T12:03:48.867Z,0.97
2019-05-11T12:06:20.382Z,1.03
2019-05-11T12:08:49.776Z,1.00
2019-05-11T12:11:18.939Z,1.20
2019-05-11T12:13:47.751Z,1.30
2019-05-11T12:16:18.080Z,1.20
2019-05-11T12:18:48.642Z,1.07
2019-05-11T12:21:18.663Z,0.90
2019-05-11T12:23:48.508Z,1.00
2019-05-11T12:26:17.860Z,1.00
2019-05-11T12:28:48.802Z,0.90
2019-05-11T12:31:18.412Z,1.20
2019-05-11T12:33:48.414Z,1.00
2019-05-11T12:36:18.719Z,1.00
2019-05-11T12:38:48.773Z,0.90
2019-05-11T12:41:19.078Z,1.10
2019-05-11T12:43:48.858Z,1.00
2019-05-11T12:46:18.866Z,0.97
2019-05-11T12:48:48.433Z,1.00
2019-05-11T12:51:18.718Z,1.00
2019-05-11T12:53:47.813Z,1.00
2019-05-11T12:56:18.717Z,1.00
2019-05-11T12:58:48.977Z,0.90
2019-05-11T13:01:18.797Z,0.90
2019-05-11T13:03:48.934Z,1.00
2019-05-11T13:06:19.093Z,0.73
2019-05-11T13:08:48.172Z,0.83
2019-05-11T13:11:18.744Z,1.00
2019-05-11T13:13:48.369Z,0.90
2019-05-11T13:16:18.502Z,1.13
2019-05-11T13:18:48.841Z,0.70
2019-05-11T13:21:18.245Z,0.90
2019-05-11T13:23:48.961Z,0.80
2019-05-11T13:26:18.018Z,0.80
2019-05-11T13:28:48.456Z,0.97
2019-05-11T13:31:18.693Z,1.00
2019-05-11T13:33:47.881Z,0.83
2019-05-11T13:36:18.557Z,1.10
2019-05-11T13:38:48.381Z,0.90
2019-05-11T13:41:18.725Z,0.80
2019-05-11T13:43:48.565Z,0.90
2019-05-11T13:46:17.978Z,1.00
2019-05-11T13:48:47.702Z,1.00
2019-05-11T13:51:18.288Z,0.70
2019-05-11T13:53:48.213Z,0.90
2019-05-11T13:56:18.299Z,0.73
2019-05-11T13:58:48.974Z,0.83
2019-05-11T14:01:18.439Z,1.00
2019-05-11T14:03:48.325Z,0.60
2019-05-11T14:06:18.365Z,0.83
2019-05-11T14:08:48.099Z,0.80
2019-05-11T14:11:18.250Z,0.90
2019-05-11T14:16:18.654Z,0.90
2019-05-11T14:18:48.875Z,0.70
2019-05-11T14:21:18.521Z,0.70
2019-05-11T14:23:48.330Z,0.80
2019-05-11T14:26:19.251Z,0.70
2019-05-11T14:28:47.940Z,0.97
2019-05-11T14:31:18.574Z,0.80
2019-05-11T14:32:21.180Z,0.90
2019-05-11T14:33:48.960Z,0.80
2019-05-11T14:36:18.302Z,0.70
2019-05-11T14:38:48.701Z,0.80
2019-05-11T14:41:18.165Z,0.90
2019-05-11T14:43:48.981Z,0.70
2019-05-11T14:46:18.131Z,0.63
2019-05-11T14:48:48.087Z,0.70
2019-05-11T14:51:17.989Z,0.60
2019-05-11T14:53:48.130Z,0.87
2019-05-11T14:56:18.995Z,0.50
2019-05-11T14:58:49.060Z,0.70
2019-05-11T15:01:18.335Z,0.60
2019-05-11T15:03:48.639Z,0.87
2019-05-11T15:06:18.921Z,0.57
2019-05-11T15:08:47.981Z,0.90
2019-05-11T15:11:18.850Z,0.70
2019-05-11T15:13:48.857Z,0.67
2019-05-11T15:16:18.674Z,0.90
2019-05-11T15:18:48.453Z,0.80
2019-05-11T15:21:18.885Z,0.90
2019-05-11T15:23:47.751Z,0.73
2019-05-11T15:26:18.515Z,0.80
2019-05-11T15:28:48.690Z,0.90
2019-05-11T15:31:21.588Z,0.80
2019-05-11T15:33:48.847Z,0.77
2019-05-11T15:36:19.221Z,0.80
2019-05-11T15:38:48.172Z,0.80
2019-05-11T15:41:17.780Z,1.00
2019-05-11T15:43:47.974Z,1.10
2019-05-11T15:46:19.512Z,0.93
2019-05-11T15:48:56.798Z,0.90
2019-05-11T15:51:18.724Z,1.03
2019-05-11T15:53:47.646Z,0.90
2019-05-11T15:56:19.152Z,0.90
2019-05-11T15:58:48.529Z,0.83
2019-05-11T16:01:18.659Z,0.73
2019-05-11T16:03:49.666Z,1.10
2019-05-11T16:06:18.532Z,1.10
2019-05-11T16:08:47.457Z,1.00
2019-05-11T16:11:18.233Z,0.80
2019-05-11T16:13:48.329Z,1.13
2019-05-11T16:16:16.563Z,0.60
2019-05-11T16:18:45.027Z,0.70
2019-05-11T16:21:13.514Z,0.40
2019-05-11T16:23:41.987Z,0.60
2019-05-11T16:26:10.531Z,0.60
2019-05-11T16:28:39.003Z,0.70
2019-05-11T16:31:09.199Z,0.70
2019-05-11T16:33:37.737Z,0.80
2019-05-11T16:36:08.815Z,0.80
2019-05-11T16:38:38.074Z,0.90
2019-05-11T16:41:08.973Z,1.97
2019-05-11T16:43:38.515Z,0.83
2019-05-11T16:46:08.688Z,1.00
2019-05-11T16:48:38.419Z,1.40
2019-05-11T16:51:08.600Z,1.10
2019-05-11T16:53:39.048Z,1.10
2019-05-11T16:56:08.424Z,1.00
2019-05-11T16:58:38.034Z,1.00
2019-05-11T17:01:08.573Z,1.40
2019-05-11T17:03:38.443Z,1.20
2019-05-11T17:06:08.284Z,1.10
2019-05-11T17:08:38.316Z,1.30
2019-05-11T17:11:08.208Z,1.00
2019-05-11T17:13:37.953Z,0.80
2019-05-11T17:16:08.628Z,0.90
2019-05-11T17:18:36.868Z,0.90
2019-05-11T17:21:07.633Z,1.00
2019-05-11T17:23:38.089Z,0.80
2019-05-11T17:26:08.523Z,0.80
2019-05-11T17:28:37.872Z,1.07
2019-05-11T17:31:09.016Z,1.30
2019-05-11T17:33:38.475Z,1.60
2019-05-11T17:36:08.422Z,2.23
2019-05-11T17:38:39.022Z,1.80
2019-05-11T17:41:08.516Z,2.20
2019-05-11T17:43:38.628Z,2.57
2019-05-11T17:46:08.038Z,2.13
2019-05-11T17:48:38.832Z,1.70
2019-05-11T17:51:20.499Z,1.50
2019-05-11T17:53:37.820Z,0.90
2019-05-11T17:56:06.549Z,1.10
2019-05-11T17:58:37.676Z,1.10
2019-05-11T18:01:05.634Z,1.10
2019-05-11T18:03:34.102Z,1.00
2019-05-11T18:06:02.696Z,1.13
2019-05-11T18:08:31.228Z,0.90
2019-05-11T18:10:59.688Z,0.70
2019-05-11T18:13:28.577Z,0.77
2019-05-11T18:15:57.775Z,1.17
2019-05-11T18:18:28.910Z,1.00
2019-05-11T18:20:57.899Z,0.80
2019-05-11T18:23:28.324Z,1.00
2019-05-11T18:25:56.822Z,1.00
2019-05-11T18:28:25.265Z,1.10
2019-05-11T18:30:53.704Z,1.60
2019-05-11T18:33:22.174Z,1.60
2019-05-11T18:35:50.785Z,1.30
2019-05-11T18:38:19.230Z,1.77
2019-05-11T18:40:48.663Z,1.60
2019-05-11T18:43:18.842Z,2.00
2019-05-11T18:45:48.831Z,1.40
2019-05-11T18:48:18.560Z,1.37
2019-05-11T18:50:49.108Z,1.40
2019-05-11T18:53:18.728Z,1.80
2019-05-11T18:55:48.658Z,1.80
2019-05-11T18:58:18.430Z,2.07
2019-05-11T19:00:48.815Z,1.90
2019-05-11T19:03:19.286Z,1.80
2019-05-11T19:05:48.166Z,1.70
2019-05-11T19:08:18.750Z,1.30
2019-05-11T19:10:48.902Z,1.33
2019-05-11T19:13:17.174Z,1.40
2019-05-11T19:15:45.658Z,1.57
2019-05-11T19:18:14.245Z,1.57
2019-05-11T19:20:45.622Z,1.40
2019-05-11T19:23:12.881Z,1.47
2019-05-11T19:25:41.370Z,1.30
2019-05-11T19:28:09.989Z,1.23
2019-05-11T19:30:38.547Z,1.07
2019-05-11T19:33:08.190Z,0.90
2019-05-11T19:35:37.832Z,1.20
2019-05-11T19:38:08.461Z,0.90
2019-05-11T19:40:38.493Z,1.10
2019-05-11T19:43:08.116Z,0.90
2019-05-11T19:45:38.362Z,1.10
2019-05-11T19:48:08.357Z,0.80
2019-05-11T19:50:38.214Z,0.80
2019-05-11T19:53:08.436Z,0.80
2019-05-11T19:55:37.248Z,0.80
2019-05-11T19:58:05.701Z,0.83
2019-05-11T20:00:34.184Z,0.83
2019-05-11T20:03:02.699Z,0.80
2019-05-11T20:05:31.498Z,0.70
2019-05-11T20:07:59.983Z,0.60
2019-05-11T20:10:28.589Z,0.70
2019-05-11T20:12:58.845Z,0.70
2019-05-11T20:15:27.600Z,0.60
2019-05-11T20:17:58.456Z,0.70
2019-05-11T20:20:28.251Z,0.67
2019-05-11T20:22:58.438Z,0.60
2019-05-11T20:25:28.867Z,0.70
2019-05-11T20:27:58.500Z,0.60
2019-05-11T20:30:27.148Z,0.60
2019-05-11T20:32:55.635Z,0.60
2019-05-11T20:35:24.214Z,0.50
2019-05-11T20:37:52.699Z,0.60
2019-05-11T20:40:21.154Z,0.60
2019-05-11T20:42:49.861Z,0.60
2019-05-11T20:45:18.931Z,0.60
2019-05-11T20:47:48.722Z,0.60
2019-05-11T20:50:18.353Z,0.70
2019-05-11T20:52:48.162Z,0.60
2019-05-11T20:55:18.273Z,0.70
2019-05-11T20:57:48.418Z,0.70
2019-05-11T21:00:18.765Z,0.60
2019-05-11T21:02:48.687Z,0.67
2019-05-11T21:05:18.260Z,0.73
2019-05-11T21:07:47.041Z,0.90
2019-05-11T21:10:15.623Z,0.80
2019-05-11T21:12:44.173Z,0.80
2019-05-11T21:15:12.783Z,0.90
2019-05-11T21:17:41.257Z,0.80
2019-05-11T21:20:10.127Z,1.03
2019-05-11T21:22:40.694Z,0.80
2019-05-11T21:25:09.921Z,0.80
2019-05-11T21:27:38.744Z,0.63
2019-05-11T21:30:09.097Z,0.80
2019-05-11T21:32:39.064Z,0.70
2019-05-11T21:35:08.912Z,0.80
2019-05-11T21:37:38.683Z,0.60
2019-05-11T21:40:08.938Z,0.67
2019-05-11T21:42:39.117Z,0.70
2019-05-11T21:45:09.610Z,0.70
2019-05-11T21:47:38.943Z,0.73
2019-05-11T21:50:09.113Z,0.70
2019-05-11T21:52:38.646Z,0.60
2019-05-11T21:55:09.475Z,0.80
2019-05-11T21:57:38.443Z,0.90
2019-05-11T22:00:09.050Z,0.70
2019-05-11T22:02:38.713Z,0.70
2019-05-11T22:05:08.740Z,0.60
2019-05-11T22:07:38.813Z,0.80
2019-05-11T22:10:08.874Z,0.70
2019-05-11T22:12:38.730Z,0.90
2019-05-11T22:15:09.096Z,0.67
2019-05-11T22:17:39.237Z,0.73
2019-05-11T22:20:08.967Z,0.70
2019-05-11T22:22:39.038Z,0.70
2019-05-11T22:25:08.988Z,0.80
2019-05-11T22:27:38.881Z,0.80
2019-05-11T22:30:08.532Z,0.90
2019-05-11T22:32:38.354Z,0.80
2019-05-11T22:35:09.354Z,0.90
2019-05-11T22:37:38.735Z,0.80
2019-05-11T22:40:08.712Z,0.80
2019-05-11T22:42:37.597Z,0.90
2019-05-11T22:45:09.812Z,0.90
2019-05-11T22:47:39.786Z,0.90
2019-05-11T22:50:09.900Z,1.00
2019-05-11T22:52:40.308Z,0.90
2019-05-11T22:55:12.089Z,1.00
2019-05-11T22:57:39.759Z,0.80
2019-05-11T23:00:11.756Z,1.00
2019-05-11T23:02:40.212Z,1.17
2019-05-11T23:05:09.425Z,0.80
2019-05-11T23:07:41.500Z,1.10
2019-05-11T23:10:09.742Z,0.93
2019-05-11T23:12:38.755Z,1.10
2019-05-11T23:15:10.273Z,1.00
2019-05-11T23:17:38.930Z,1.17
2019-05-11T23:20:07.895Z,1.00
2019-05-11T23:22:53.402Z,1.00
2019-05-11T23:25:08.686Z,1.07
2019-05-11T23:27:39.269Z,0.80
2019-05-11T23:30:08.694Z,1.00
2019-05-11T23:32:37.563Z,1.20
2019-05-11T23:35:08.837Z,1.00
2019-05-11T23:37:38.633Z,0.97
2019-05-11T23:40:09.241Z,1.27
2019-05-11T23:42:38.222Z,1.00
2019-05-11T23:45:08.400Z,1.20
2019-05-11T23:47:39.300Z,1.00
2019-05-11T23:50:08.582Z,1.20
2019-05-11T23:52:38.050Z,1.00
2019-05-11T23:55:08.403Z,0.90
2019-05-11T23:57:37.851Z,0.93
